BBP weather

Bembridge Airport
Bembridge, England, United Kingdom

Public forecast

Using degrees Celsius for public forecast. Weather courtesy of forecast.io.

Closest aviation weather report (METAR) to Bembridge Airport

Closest report is Southampton Airport, 18.8 nm (34.9 km) NNW. Retrieved 2020/07/02 12:50 UTC (29 minutes ago):

EGHI 021250Z 25008KT 210V270 9999 SCT034 19/11 Q1012

Closest aviation forecast (TAF) to Bembridge Airport

Forecast is more than 12 hours old.

Closest forecast is Southampton Airport, 18.8 nm (34.9 km) NNW. Retrieved 2020/02/21 21:54 UTC (4 months ago):

TAF EGHI 210345Z 2021/2123 CNL